createdAt,value
2023-05-16T00:00:25.746Z,16.10
2023-05-16T00:02:43.291Z,14.85
2023-05-16T00:05:00.427Z,15.48
2023-05-16T00:07:18.528Z,15.07
2023-05-16T00:09:35.525Z,14.57
2023-05-16T00:11:52.864Z,14.30
2023-05-16T00:14:10.155Z,15.02
2023-05-16T00:16:27.478Z,13.93
2023-05-16T00:18:44.787Z,13.00
2023-05-16T00:21:03.005Z,15.23
2023-05-16T00:23:20.345Z,14.75
2023-05-16T00:25:38.579Z,13.23
2023-05-16T00:27:56.263Z,13.40
2023-05-16T00:30:13.484Z,14.27
2023-05-16T00:32:30.803Z,13.63
2023-05-16T00:34:48.239Z,11.93
2023-05-16T00:37:05.635Z,12.38
2023-05-16T00:39:22.899Z,12.45
2023-05-16T00:41:40.149Z,12.02
2023-05-16T00:43:57.759Z,11.48
2023-05-16T00:46:14.735Z,11.23
2023-05-16T00:48:32.132Z,9.88
2023-05-16T00:50:50.045Z,9.70
2023-05-16T00:53:07.357Z,9.55
2023-05-16T00:55:24.636Z,9.73
2023-05-16T00:57:41.887Z,10.10
2023-05-16T00:59:59.521Z,8.88
2023-05-16T01:02:16.901Z,9.13
2023-05-16T01:04:34.199Z,9.20
2023-05-16T01:06:51.510Z,8.60
2023-05-16T01:09:08.776Z,8.55
2023-05-16T01:11:26.332Z,9.02
2023-05-16T01:13:43.950Z,8.43
2023-05-16T01:16:01.246Z,8.80
2023-05-16T01:18:18.942Z,8.55
2023-05-16T01:20:36.269Z,8.48
2023-05-16T01:22:53.564Z,8.20
2023-05-16T01:25:10.559Z,8.30
2023-05-16T01:27:29.780Z,8.18
2023-05-16T01:29:47.033Z,8.90
2023-05-16T01:32:04.392Z,8.52
2023-05-16T01:34:21.316Z,7.70
2023-05-16T01:36:38.614Z,8.02
2023-05-16T01:38:56.752Z,9.30
2023-05-16T01:41:14.057Z,8.77
2023-05-16T01:43:31.381Z,8.35
2023-05-16T01:45:48.640Z,8.63
2023-05-16T01:48:06.420Z,8.82
2023-05-16T01:50:23.915Z,8.82
2023-05-16T01:52:43.145Z,7.82
2023-05-16T01:55:00.979Z,9.23
2023-05-16T01:57:18.327Z,7.72
2023-05-16T01:59:36.673Z,8.38
2023-05-16T02:01:54.376Z,7.93
2023-05-16T02:04:12.169Z,8.52
2023-05-16T02:06:29.442Z,7.90
2023-05-16T02:08:46.743Z,8.10
2023-05-16T02:11:04.746Z,7.32
2023-05-16T02:13:22.066Z,8.43
2023-05-16T02:15:39.702Z,7.88
2023-05-16T02:17:58.075Z,8.85
2023-05-16T02:20:15.361Z,7.68
2023-05-16T02:22:32.625Z,7.65
2023-05-16T02:24:50.967Z,7.30
2023-05-16T02:27:08.336Z,8.73
2023-05-16T02:29:25.605Z,7.80
2023-05-16T02:31:43.901Z,8.52
2023-05-16T02:34:01.296Z,7.82
2023-05-16T02:36:18.493Z,6.85
2023-05-16T02:38:37.053Z,6.85
2023-05-16T02:40:54.296Z,7.80
2023-05-16T02:43:11.624Z,6.97
2023-05-16T02:45:28.785Z,7.00
2023-05-16T02:47:46.254Z,7.28
2023-05-16T02:50:03.237Z,7.43
2023-05-16T02:52:20.559Z,6.68
2023-05-16T02:54:38.909Z,6.50
2023-05-16T02:56:55.844Z,6.57
2023-05-16T02:59:14.181Z,6.90
2023-05-16T03:01:31.501Z,6.53
2023-05-16T03:03:49.858Z,6.57
2023-05-16T03:06:07.332Z,6.63
2023-05-16T03:08:25.015Z,6.22
2023-05-16T03:10:42.402Z,6.25
2023-05-16T03:12:59.795Z,5.72
2023-05-16T03:15:17.030Z,5.82
2023-05-16T03:17:34.377Z,5.65
2023-05-16T03:19:52.093Z,5.22
2023-05-16T03:22:09.443Z,5.15
2023-05-16T03:24:27.173Z,4.93
2023-05-16T03:26:44.606Z,4.38
2023-05-16T03:29:01.670Z,4.10
2023-05-16T03:31:19.346Z,3.92
2023-05-16T03:33:37.715Z,3.22
2023-05-16T03:35:54.962Z,2.90
2023-05-16T03:38:12.243Z,2.75
2023-05-16T03:40:29.634Z,2.20
2023-05-16T03:42:47.313Z,2.05
2023-05-16T03:45:05.494Z,2.10
2023-05-16T03:47:22.396Z,1.80
2023-05-16T03:49:39.624Z,1.95
2023-05-16T03:51:56.917Z,1.60
2023-05-16T03:54:13.832Z,1.58
2023-05-16T03:56:31.070Z,1.30
2023-05-16T03:58:48.327Z,1.35
2023-05-16T04:01:05.577Z,1.58
2023-05-16T04:03:23.452Z,1.63
2023-05-16T04:05:40.489Z,1.45
2023-05-16T04:07:57.830Z,1.40
2023-05-16T04:10:15.105Z,1.50
2023-05-16T04:12:32.314Z,1.52
2023-05-16T04:14:49.551Z,1.50
2023-05-16T04:17:06.932Z,1.70
2023-05-16T04:19:24.168Z,1.45
2023-05-16T04:21:41.504Z,1.52
2023-05-16T04:23:58.415Z,1.60
2023-05-16T04:26:15.683Z,1.42
2023-05-16T04:28:32.979Z,1.40
2023-05-16T04:30:52.371Z,1.42
2023-05-16T04:33:09.685Z,1.52
2023-05-16T04:35:27.166Z,1.48
2023-05-16T04:37:44.891Z,1.50
2023-05-16T04:40:02.193Z,1.40
2023-05-16T04:42:20.095Z,1.42
2023-05-16T04:44:37.375Z,1.50
2023-05-16T04:46:54.776Z,1.70
2023-05-16T04:49:13.110Z,1.63
2023-05-16T04:51:30.131Z,1.70
2023-05-16T04:53:47.469Z,1.42
2023-05-16T04:56:04.302Z,1.50
2023-05-16T04:58:21.543Z,1.58
2023-05-16T05:00:38.799Z,1.40
2023-05-16T05:02:56.547Z,1.42
2023-05-16T05:05:13.905Z,1.60
2023-05-16T05:07:31.236Z,1.40
2023-05-16T05:09:48.717Z,1.50
2023-05-16T05:12:05.662Z,2.00
2023-05-16T05:14:23.227Z,1.65
2023-05-16T05:16:40.640Z,1.88
2023-05-16T05:18:57.967Z,1.55
2023-05-16T05:21:15.336Z,1.50
2023-05-16T05:23:33.569Z,1.55
2023-05-16T05:25:51.252Z,1.88
2023-05-16T05:28:08.554Z,1.60
2023-05-16T05:30:25.465Z,1.73
2023-05-16T05:32:42.721Z,1.77
2023-05-16T05:35:02.943Z,1.60
2023-05-16T05:37:20.191Z,1.77
2023-05-16T05:39:37.516Z,1.70
2023-05-16T05:41:54.827Z,1.60
2023-05-16T05:44:13.089Z,1.80
2023-05-16T05:46:30.463Z,1.80
2023-05-16T05:48:47.822Z,1.92
2023-05-16T05:51:05.163Z,1.63
2023-05-16T05:53:22.399Z,1.52
2023-05-16T05:55:39.701Z,1.70
2023-05-16T05:57:57.000Z,1.48
2023-05-16T06:00:14.625Z,1.48
2023-05-16T06:02:32.020Z,1.55
2023-05-16T06:04:49.366Z,1.50
2023-05-16T06:07:06.800Z,1.83
2023-05-16T06:09:24.001Z,1.42
2023-05-16T06:11:41.228Z,1.40
2023-05-16T06:13:58.520Z,1.45
2023-05-16T06:16:15.839Z,1.88
2023-05-16T06:18:33.179Z,2.40
2023-05-16T06:20:50.549Z,4.03
2023-05-16T06:23:07.874Z,2.60
2023-05-16T06:25:25.368Z,2.10
2023-05-16T06:27:43.789Z,1.85
2023-05-16T06:30:01.074Z,2.15
2023-05-16T06:32:17.988Z,1.70
2023-05-16T06:34:34.974Z,1.83
2023-05-16T06:36:51.883Z,1.75
2023-05-16T06:39:09.165Z,2.53
2023-05-16T06:41:26.506Z,5.07
2023-05-16T06:43:43.843Z,3.92
2023-05-16T06:46:00.911Z,3.10
2023-05-16T06:48:18.367Z,6.55
2023-05-16T06:50:35.748Z,4.72
2023-05-16T06:52:52.970Z,3.38
2023-05-16T06:55:10.265Z,2.47
2023-05-16T06:57:27.979Z,2.50
2023-05-16T06:59:45.273Z,3.03
2023-05-16T07:02:02.673Z,2.35
2023-05-16T07:04:20.042Z,2.20
2023-05-16T07:06:37.354Z,2.22
2023-05-16T07:08:54.617Z,2.50
2023-05-16T07:11:12.034Z,2.35
2023-05-16T07:13:29.790Z,2.30
2023-05-16T07:15:47.891Z,2.08
2023-05-16T07:18:05.320Z,2.70
2023-05-16T07:20:22.701Z,4.88
2023-05-16T07:22:40.042Z,8.10
2023-05-16T07:24:57.719Z,8.60
2023-05-16T07:27:15.977Z,4.95
2023-05-16T07:29:33.110Z,4.30
2023-05-16T07:31:50.432Z,5.47
2023-05-16T07:34:08.379Z,3.97
2023-05-16T07:36:25.527Z,3.63
2023-05-16T07:38:42.600Z,3.90
2023-05-16T07:40:59.910Z,4.97
2023-05-16T07:43:18.144Z,4.03
2023-05-16T07:45:35.373Z,3.00
2023-05-16T07:47:52.811Z,2.40
2023-05-16T07:50:10.229Z,2.40
2023-05-16T07:52:28.478Z,2.40
2023-05-16T07:54:45.747Z,2.08
2023-05-16T07:57:03.091Z,2.10
2023-05-16T07:59:20.398Z,2.20
2023-05-16T08:01:38.772Z,2.10
2023-05-16T08:03:55.955Z,3.10
2023-05-16T08:06:16.235Z,2.80
2023-05-16T08:08:33.581Z,2.83
2023-05-16T08:10:50.956Z,3.85
2023-05-16T08:13:08.245Z,3.40
2023-05-16T08:15:25.739Z,3.60
2023-05-16T08:17:43.183Z,3.78
2023-05-16T08:20:00.604Z,4.10
2023-05-16T08:22:17.544Z,4.30
2023-05-16T08:24:35.069Z,4.55
2023-05-16T08:26:53.372Z,4.75
2023-05-16T08:29:10.737Z,4.78
2023-05-16T08:31:28.022Z,5.13
2023-05-16T08:33:45.341Z,4.80
2023-05-16T08:36:03.669Z,5.65
2023-05-16T08:38:21.020Z,9.30
2023-05-16T08:40:38.282Z,7.72
2023-05-16T08:42:55.172Z,6.70
2023-05-16T08:45:12.533Z,10.10
2023-05-16T08:47:30.524Z,6.80
2023-05-16T08:49:48.965Z,5.07
2023-05-16T08:52:06.353Z,4.60
2023-05-16T08:54:24.537Z,5.00
2023-05-16T08:56:42.650Z,4.30
2023-05-16T08:59:01.287Z,5.05
2023-05-16T09:01:18.732Z,5.32
2023-05-16T09:03:35.947Z,4.30
2023-05-16T09:05:53.358Z,4.30
2023-05-16T09:08:10.761Z,4.82
2023-05-16T09:10:30.539Z,4.82
2023-05-16T09:12:48.272Z,4.72
2023-05-16T09:15:05.609Z,3.90
2023-05-16T09:17:32.198Z,3.20
2023-05-16T09:19:56.017Z,3.38
2023-05-16T09:22:15.624Z,3.80
2023-05-16T09:24:32.710Z,3.60
2023-05-16T09:26:50.003Z,3.17
2023-05-16T09:29:07.766Z,3.30
2023-05-16T09:31:25.290Z,3.30
2023-05-16T09:33:42.673Z,2.60
2023-05-16T09:36:01.030Z,2.88
2023-05-16T09:38:18.441Z,3.22
2023-05-16T09:40:35.425Z,3.33
2023-05-16T09:42:52.568Z,2.90
2023-05-16T09:45:09.857Z,2.80
2023-05-16T09:47:27.162Z,3.17
2023-05-16T09:49:44.570Z,2.60
2023-05-16T09:52:01.898Z,2.50
2023-05-16T09:54:19.180Z,2.55
2023-05-16T09:56:36.588Z,3.05
2023-05-16T09:58:53.721Z,2.60
2023-05-16T10:01:11.106Z,2.80
2023-05-16T10:03:29.634Z,2.30
2023-05-16T10:05:47.893Z,3.30
2023-05-16T10:08:07.586Z,2.83
2023-05-16T10:10:24.957Z,3.10
2023-05-16T10:12:42.363Z,3.22
2023-05-16T10:14:59.787Z,2.28
2023-05-16T10:17:17.180Z,2.80
2023-05-16T10:19:34.553Z,2.22
2023-05-16T10:21:52.301Z,2.60
2023-05-16T10:24:09.665Z,2.67
2023-05-16T10:26:26.602Z,2.90
2023-05-16T10:28:43.606Z,3.10
2023-05-16T10:31:00.983Z,2.50
2023-05-16T10:33:18.145Z,3.10
2023-05-16T10:35:35.517Z,2.58
2023-05-16T10:37:53.025Z,2.20
2023-05-16T10:40:10.347Z,2.40
2023-05-16T10:42:27.626Z,2.78
2023-05-16T10:44:54.469Z,1.77
2023-05-16T10:47:16.039Z,1.73
2023-05-16T10:49:35.874Z,2.50
2023-05-16T10:51:54.221Z,2.17
2023-05-16T10:54:11.554Z,1.77
2023-05-16T10:56:29.301Z,2.00
2023-05-16T10:58:47.074Z,1.88
2023-05-16T11:01:04.677Z,1.33
2023-05-16T11:03:22.109Z,1.70
2023-05-16T11:05:39.497Z,1.65
2023-05-16T11:07:57.203Z,1.60
2023-05-16T11:10:15.006Z,1.60
2023-05-16T11:12:33.545Z,1.50
2023-05-16T11:14:51.218Z,2.00
2023-05-16T11:17:08.674Z,2.53
2023-05-16T11:19:26.146Z,1.60
2023-05-16T11:21:43.601Z,1.52
2023-05-16T11:24:00.988Z,1.83
2023-05-16T11:26:18.686Z,1.60
2023-05-16T11:28:35.646Z,1.50
2023-05-16T11:30:52.913Z,1.50
2023-05-16T11:33:10.294Z,1.50
2023-05-16T11:35:28.168Z,1.50
2023-05-16T11:37:45.550Z,1.60
2023-05-16T11:40:02.959Z,1.77
2023-05-16T11:42:20.324Z,1.80
2023-05-16T11:44:37.322Z,1.48
2023-05-16T11:46:54.632Z,1.40
2023-05-16T11:49:11.970Z,1.70
2023-05-16T11:51:29.350Z,1.52
2023-05-16T11:53:47.630Z,1.60
2023-05-16T11:56:04.626Z,1.30
2023-05-16T11:58:22.039Z,2.30
2023-05-16T12:00:39.027Z,1.40
2023-05-16T12:02:57.452Z,1.45
2023-05-16T12:05:15.343Z,1.30
2023-05-16T12:07:32.732Z,1.35
2023-05-16T12:09:50.442Z,1.38
2023-05-16T12:12:08.704Z,1.38
2023-05-16T12:14:26.424Z,2.05
2023-05-16T12:16:43.480Z,1.83
2023-05-16T12:19:01.849Z,1.45
2023-05-16T12:21:19.247Z,1.52
2023-05-16T12:23:36.279Z,1.40
2023-05-16T12:25:54.551Z,1.90
2023-05-16T12:28:11.883Z,1.92
2023-05-16T12:30:29.521Z,1.80
2023-05-16T12:32:48.075Z,1.75
2023-05-16T12:35:06.598Z,1.42
2023-05-16T12:37:23.874Z,2.30
2023-05-16T12:39:41.226Z,1.67
2023-05-16T12:41:59.209Z,1.90
2023-05-16T12:44:16.421Z,1.80
2023-05-16T12:46:33.840Z,1.55
2023-05-16T12:48:51.538Z,1.60
2023-05-16T12:51:08.505Z,1.48
2023-05-16T12:53:25.771Z,1.70
2023-05-16T12:55:43.133Z,1.52
2023-05-16T12:58:00.576Z,1.50
2023-05-16T13:00:18.018Z,1.77
2023-05-16T13:02:36.396Z,1.90
2023-05-16T13:04:53.794Z,2.10
2023-05-16T13:07:11.138Z,1.60
2023-05-16T13:09:32.160Z,1.83
2023-05-16T13:11:51.599Z,1.55
2023-05-16T13:14:09.887Z,1.55
2023-05-16T13:16:27.221Z,1.75
2023-05-16T13:18:44.678Z,1.45
2023-05-16T13:21:02.278Z,1.42
2023-05-16T13:23:19.700Z,1.60
2023-05-16T13:25:38.215Z,1.38
2023-05-16T13:27:56.026Z,1.50
2023-05-16T13:30:13.289Z,1.30
2023-05-16T13:32:30.636Z,1.58
2023-05-16T13:34:47.949Z,1.60
2023-05-16T13:37:05.319Z,1.65
2023-05-16T13:39:22.424Z,1.70
2023-05-16T13:41:39.799Z,1.80
2023-05-16T13:43:57.134Z,1.80
2023-05-16T13:46:14.591Z,1.90
2023-05-16T13:48:32.412Z,1.65
2023-05-16T13:50:49.951Z,1.67
2023-05-16T13:53:07.341Z,1.42
2023-05-16T13:55:24.666Z,1.60
2023-05-16T13:57:42.035Z,1.40
2023-05-16T14:00:27.499Z,1.70
2023-05-16T14:02:36.363Z,1.50
2023-05-16T14:04:54.695Z,1.70
2023-05-16T14:07:11.999Z,1.30
2023-05-16T14:09:29.751Z,1.40
2023-05-16T14:11:46.745Z,1.83
2023-05-16T14:14:04.120Z,1.90
2023-05-16T14:16:22.420Z,1.30
2023-05-16T14:18:39.931Z,1.52
2023-05-16T14:20:57.861Z,1.42
2023-05-16T14:23:15.169Z,1.33
2023-05-16T14:25:33.430Z,1.40
2023-05-16T14:27:50.714Z,1.40
2023-05-16T14:30:08.822Z,1.33
2023-05-16T14:32:26.030Z,1.40
2023-05-16T14:34:44.456Z,1.67
2023-05-16T14:37:05.660Z,1.40
2023-05-16T14:39:22.820Z,1.52
2023-05-16T14:41:44.648Z,1.67
2023-05-16T14:44:02.070Z,1.48
2023-05-16T14:46:19.370Z,1.75
2023-05-16T14:48:36.728Z,1.20
2023-05-16T14:50:54.147Z,1.63
2023-05-16T14:53:11.432Z,1.50
2023-05-16T14:55:29.409Z,1.45
2023-05-16T14:57:46.813Z,1.20
2023-05-16T15:00:04.699Z,1.30
2023-05-16T15:02:22.013Z,1.30
2023-05-16T15:04:39.365Z,1.48
2023-05-16T15:06:57.395Z,1.38
2023-05-16T15:09:14.723Z,1.15
2023-05-16T15:11:32.056Z,1.40
2023-05-16T15:13:49.105Z,1.80
2023-05-16T15:16:10.356Z,1.15
2023-05-16T15:18:27.548Z,1.58
2023-05-16T15:20:44.464Z,1.40
2023-05-16T15:23:01.540Z,1.55
2023-05-16T15:25:18.918Z,1.35
2023-05-16T15:27:39.063Z,1.52
2023-05-16T15:29:56.424Z,1.23
2023-05-16T15:32:13.676Z,1.67
2023-05-16T15:34:30.672Z,1.40
2023-05-16T15:36:47.678Z,1.65
2023-05-16T15:39:05.020Z,1.80
2023-05-16T15:41:36.839Z,1.60
2023-05-16T15:43:59.642Z,1.85
2023-05-16T15:46:17.716Z,1.70
2023-05-16T15:48:34.803Z,1.42
2023-05-16T15:50:52.195Z,1.40
2023-05-16T15:53:09.516Z,1.80
2023-05-16T15:55:27.935Z,1.50
2023-05-16T15:57:45.899Z,1.48
2023-05-16T16:00:03.411Z,1.30
2023-05-16T16:02:22.174Z,1.60
2023-05-16T16:04:39.592Z,1.90
2023-05-16T16:06:56.924Z,1.63
2023-05-16T16:09:13.959Z,1.90
2023-05-16T16:11:30.993Z,1.80
2023-05-16T16:13:48.070Z,1.88
2023-05-16T16:16:05.406Z,1.80
2023-05-16T16:18:22.425Z,2.03
2023-05-16T16:20:39.678Z,1.83
2023-05-16T16:22:57.988Z,2.03
2023-05-16T16:25:15.358Z,1.90
2023-05-16T16:27:32.650Z,1.80
2023-05-16T16:29:49.599Z,1.90
2023-05-16T16:32:06.597Z,1.70
2023-05-16T16:34:23.557Z,1.73
2023-05-16T16:36:40.821Z,2.00
2023-05-16T16:38:57.777Z,1.60
2023-05-16T16:41:16.266Z,1.67
2023-05-16T16:43:33.792Z,1.50
2023-05-16T16:45:51.120Z,1.55
2023-05-16T16:48:08.471Z,1.70
2023-05-16T16:50:25.865Z,1.60
2023-05-16T16:52:43.307Z,1.42
2023-05-16T16:55:00.635Z,1.42
2023-05-16T16:57:18.017Z,1.30
2023-05-16T16:59:34.990Z,1.20
2023-05-16T17:01:52.375Z,1.67
2023-05-16T17:04:09.762Z,1.33
2023-05-16T17:06:27.142Z,1.58
2023-05-16T17:08:44.480Z,1.30
2023-05-16T17:11:02.679Z,1.20
2023-05-16T17:13:20.450Z,1.25
2023-05-16T17:15:38.036Z,1.20
2023-05-16T17:17:55.350Z,1.20
2023-05-16T17:20:12.817Z,1.08
2023-05-16T17:22:30.251Z,1.00
2023-05-16T17:24:47.529Z,1.13
2023-05-16T17:27:04.813Z,1.13
2023-05-16T17:29:21.760Z,1.23
2023-05-16T17:31:39.068Z,1.15
2023-05-16T17:33:56.046Z,1.13
2023-05-16T17:36:13.394Z,1.15
2023-05-16T17:38:30.679Z,1.10
2023-05-16T17:40:47.997Z,1.10
2023-05-16T17:43:05.284Z,0.95
2023-05-16T17:45:22.174Z,1.27
2023-05-16T17:47:39.534Z,2.03
2023-05-16T17:49:57.085Z,2.00
2023-05-16T17:52:14.257Z,1.42
2023-05-16T17:54:31.649Z,1.98
2023-05-16T17:56:48.956Z,1.30
2023-05-16T17:59:06.303Z,1.48
2023-05-16T18:01:23.737Z,1.48
2023-05-16T18:03:42.115Z,1.15
2023-05-16T18:06:02.480Z,1.33
2023-05-16T18:08:19.836Z,1.10
2023-05-16T18:10:50.330Z,1.00
2023-05-16T18:13:08.758Z,1.40
2023-05-16T18:15:26.130Z,1.00
2023-05-16T18:17:43.645Z,1.42
2023-05-16T18:20:00.778Z,1.35
2023-05-16T18:22:17.861Z,1.27
2023-05-16T18:24:35.217Z,1.20
2023-05-16T18:26:52.652Z,1.02
2023-05-16T18:29:09.679Z,1.40
2023-05-16T18:31:26.991Z,1.38
2023-05-16T18:33:44.305Z,1.48
2023-05-16T18:36:01.636Z,1.55
2023-05-16T18:38:31.378Z,1.90
2023-05-16T18:40:49.688Z,1.30
2023-05-16T18:43:08.015Z,1.40
2023-05-16T18:45:25.434Z,1.40
2023-05-16T18:47:42.891Z,1.45
2023-05-16T18:50:00.179Z,1.88
2023-05-16T18:52:17.498Z,1.63
2023-05-16T18:54:34.979Z,1.67
2023-05-16T18:56:53.030Z,1.48
2023-05-16T18:59:10.054Z,1.80
2023-05-16T19:01:27.402Z,1.50
2023-05-16T19:03:44.859Z,1.90
2023-05-16T19:06:02.154Z,1.50
2023-05-16T19:08:19.107Z,1.80
2023-05-16T19:10:36.422Z,1.73
2023-05-16T19:12:53.766Z,1.50
2023-05-16T19:15:10.694Z,2.00
2023-05-16T19:17:28.097Z,3.45
2023-05-16T19:19:46.440Z,4.18
2023-05-16T19:22:03.535Z,9.05
2023-05-16T19:24:20.842Z,8.77
2023-05-16T19:26:38.202Z,6.15
2023-05-16T19:28:55.523Z,4.60
2023-05-16T19:31:12.806Z,3.40
2023-05-16T19:33:30.099Z,2.10
2023-05-16T19:35:47.465Z,2.35
2023-05-16T19:38:04.547Z,2.33
2023-05-16T19:40:21.848Z,1.90
2023-05-16T19:42:38.874Z,1.95
2023-05-16T19:44:56.247Z,1.85
2023-05-16T19:47:13.603Z,2.15
2023-05-16T19:49:30.933Z,2.17
2023-05-16T19:51:48.323Z,2.42
2023-05-16T19:54:06.108Z,2.60
2023-05-16T19:56:23.434Z,1.98
2023-05-16T19:58:40.824Z,2.30
2023-05-16T20:00:58.544Z,2.30
2023-05-16T20:03:15.767Z,2.45
2023-05-16T20:05:32.876Z,2.63
2023-05-16T20:07:49.822Z,2.10
2023-05-16T20:10:07.135Z,2.53
2023-05-16T20:12:24.576Z,3.10
2023-05-16T20:14:42.489Z,2.85
2023-05-16T20:16:59.583Z,3.03
2023-05-16T20:19:17.019Z,2.65
2023-05-16T20:21:34.075Z,2.78
2023-05-16T20:23:51.036Z,2.83
2023-05-16T20:26:08.980Z,2.90
2023-05-16T20:28:25.913Z,2.75
2023-05-16T20:30:42.840Z,3.03
2023-05-16T20:33:00.043Z,2.90
2023-05-16T20:35:17.422Z,3.38
2023-05-16T20:37:34.497Z,3.33
2023-05-16T20:39:51.883Z,2.97
2023-05-16T20:42:09.191Z,2.80
2023-05-16T20:44:26.498Z,2.88
2023-05-16T20:46:43.860Z,2.65
2023-05-16T20:49:00.994Z,2.78
2023-05-16T20:51:18.133Z,3.08
2023-05-16T20:53:35.519Z,2.40
2023-05-16T20:55:53.254Z,2.58
2023-05-16T20:58:10.583Z,2.97
2023-05-16T21:00:27.898Z,3.00
2023-05-16T21:02:45.905Z,2.80
2023-05-16T21:05:19.652Z,2.70
2023-05-16T21:07:41.099Z,2.90
2023-05-16T21:09:58.352Z,2.47
2023-05-16T21:12:15.299Z,2.60
2023-05-16T21:14:32.586Z,2.53
2023-05-16T21:16:49.520Z,2.63
2023-05-16T21:19:06.995Z,2.63
2023-05-16T21:21:24.355Z,2.60
2023-05-16T21:23:41.291Z,2.45
2023-05-16T21:25:58.673Z,2.15
2023-05-16T21:28:16.051Z,2.50
2023-05-16T21:30:33.322Z,2.42
2023-05-16T21:32:50.662Z,2.40
2023-05-16T21:35:09.204Z,2.25
2023-05-16T21:37:26.680Z,2.30
2023-05-16T21:39:43.603Z,2.30
2023-05-16T21:42:00.954Z,2.50
2023-05-16T21:44:18.070Z,2.65
2023-05-16T21:46:35.387Z,2.40
2023-05-16T21:48:52.785Z,2.90
2023-05-16T21:51:09.790Z,2.08
2023-05-16T21:53:27.158Z,2.30
2023-05-16T21:55:44.816Z,2.78
2023-05-16T21:58:01.880Z,3.28
2023-05-16T22:00:19.233Z,2.67
2023-05-16T22:02:36.504Z,2.33
2023-05-16T22:04:57.945Z,2.80
2023-05-16T22:07:16.454Z,3.60
2023-05-16T22:09:33.823Z,3.20
2023-05-16T22:11:50.833Z,2.72
2023-05-16T22:14:08.329Z,2.55
2023-05-16T22:16:25.330Z,2.67
2023-05-16T22:18:42.974Z,2.80
2023-05-16T22:21:00.109Z,2.90
2023-05-16T22:23:17.440Z,2.88
2023-05-16T22:25:36.872Z,3.10
2023-05-16T22:27:54.245Z,2.80
2023-05-16T22:30:13.736Z,3.20
2023-05-16T22:32:32.143Z,3.08
2023-05-16T22:34:50.576Z,2.97
2023-05-16T22:37:08.031Z,2.90
2023-05-16T22:39:25.450Z,3.20
2023-05-16T22:41:42.776Z,2.72
2023-05-16T22:43:59.767Z,2.83
2023-05-16T22:46:17.024Z,3.40
2023-05-16T22:48:34.493Z,3.45
2023-05-16T22:50:52.036Z,3.47
2023-05-16T22:53:11.460Z,3.10
2023-05-16T22:55:29.635Z,3.28
2023-05-16T22:57:46.922Z,3.15
2023-05-16T23:00:03.902Z,2.90
2023-05-16T23:02:21.508Z,3.35
2023-05-16T23:04:38.955Z,3.15
2023-05-16T23:06:56.415Z,3.55
2023-05-16T23:09:13.546Z,3.00
2023-05-16T23:11:30.877Z,2.63
2023-05-16T23:13:48.190Z,2.90
2023-05-16T23:16:05.561Z,2.85
2023-05-16T23:18:22.905Z,3.05
2023-05-16T23:20:40.682Z,2.92
2023-05-16T23:22:57.750Z,2.80
2023-05-16T23:25:15.045Z,2.90
2023-05-16T23:27:31.979Z,3.05
2023-05-16T23:29:48.932Z,3.03
2023-05-16T23:32:05.891Z,3.03
2023-05-16T23:34:23.240Z,3.08
2023-05-16T23:36:40.576Z,2.90
2023-05-16T23:38:57.946Z,2.72
2023-05-16T23:41:16.570Z,2.63
2023-05-16T23:43:33.877Z,3.00
2023-05-16T23:45:51.120Z,2.97
2023-05-16T23:48:08.433Z,2.80
2023-05-16T23:50:25.844Z,2.90
2023-05-16T23:52:43.285Z,2.60
2023-05-16T23:55:00.252Z,2.58
2023-05-16T23:57:17.661Z,3.00
2023-05-16T23:59:34.607Z,2.50
